sensor_id;sensor_type;location;lat;lon;timestamp;P1;durP1;ratioP1;P2;durP2;ratioP2
11877;SDS011;5998;42.676;23.268;2022-10-22T00:01:09;21.97;;;15.73;;
11877;SDS011;5998;42.676;23.268;2022-10-22T00:03:35;21.03;;;15.70;;
11877;SDS011;5998;42.676;23.268;2022-10-22T00:06:01;21.00;;;15.57;;
11877;SDS011;5998;42.676;23.268;2022-10-22T00:08:28;22.83;;;15.50;;
11877;SDS011;5998;42.676;23.268;2022-10-22T00:10:56;19.97;;;15.13;;
11877;SDS011;5998;42.676;23.268;2022-10-22T00:13:22;19.07;;;15.17;;
11877;SDS011;5998;42.676;23.268;2022-10-22T00:15:49;17.93;;;14.50;;
11877;SDS011;5998;42.676;23.268;2022-10-22T00:18:16;20.43;;;14.67;;
11877;SDS011;5998;42.676;23.268;2022-10-22T00:20:42;19.17;;;14.73;;
11877;SDS011;5998;42.676;23.268;2022-10-22T00:23:09;19.40;;;14.97;;
11877;SDS011;5998;42.676;23.268;2022-10-22T00:25:35;21.80;;;14.97;;
11877;SDS011;5998;42.676;23.268;2022-10-22T00:28:03;21.07;;;14.90;;
11877;SDS011;5998;42.676;23.268;2022-10-22T00:30:30;18.80;;;13.83;;
11877;SDS011;5998;42.676;23.268;2022-10-22T00:32:56;18.30;;;14.13;;
11877;SDS011;5998;42.676;23.268;2022-10-22T00:35:23;22.40;;;14.97;;
11877;SDS011;5998;42.676;23.268;2022-10-22T00:37:49;18.30;;;14.30;;
11877;SDS011;5998;42.676;23.268;2022-10-22T00:40:16;18.00;;;14.10;;
11877;SDS011;5998;42.676;23.268;2022-10-22T00:42:42;17.40;;;14.37;;
11877;SDS011;5998;42.676;23.268;2022-10-22T00:45:18;18.47;;;13.47;;
11877;SDS011;5998;42.676;23.268;2022-10-22T00:47:47;20.63;;;14.23;;
11877;SDS011;5998;42.676;23.268;2022-10-22T00:50:15;18.53;;;14.37;;
11877;SDS011;5998;42.676;23.268;2022-10-22T00:52:42;19.63;;;14.13;;
11877;SDS011;5998;42.676;23.268;2022-10-22T00:55:08;20.90;;;14.07;;
11877;SDS011;5998;42.676;23.268;2022-10-22T00:57:35;19.50;;;14.10;;
11877;SDS011;5998;42.676;23.268;2022-10-22T01:00:02;17.37;;;14.00;;
11877;SDS011;5998;42.676;23.268;2022-10-22T01:02:30;15.63;;;13.20;;
11877;SDS011;5998;42.676;23.268;2022-10-22T01:04:56;18.27;;;13.87;;
11877;SDS011;5998;42.676;23.268;2022-10-22T01:07:23;19.53;;;13.73;;
11877;SDS011;5998;42.676;23.268;2022-10-22T01:09:53;17.47;;;13.30;;
11877;SDS011;5998;42.676;23.268;2022-10-22T01:12:25;16.33;;;13.90;;
11877;SDS011;5998;42.676;23.268;2022-10-22T01:14:59;17.83;;;13.57;;
11877;SDS011;5998;42.676;23.268;2022-10-22T01:17:31;17.50;;;13.23;;
11877;SDS011;5998;42.676;23.268;2022-10-22T01:20:02;21.63;;;13.73;;
11877;SDS011;5998;42.676;23.268;2022-10-22T01:22:33;16.83;;;13.93;;
11877;SDS011;5998;42.676;23.268;2022-10-22T01:25:03;17.17;;;13.60;;
11877;SDS011;5998;42.676;23.268;2022-10-22T01:27:33;15.70;;;12.20;;
11877;SDS011;5998;42.676;23.268;2022-10-22T01:30:03;21.00;;;13.37;;
11877;SDS011;5998;42.676;23.268;2022-10-22T01:32:30;16.60;;;12.50;;
11877;SDS011;5998;42.676;23.268;2022-10-22T01:34:59;17.33;;;13.60;;
11877;SDS011;5998;42.676;23.268;2022-10-22T01:37:28;18.43;;;13.60;;
11877;SDS011;5998;42.676;23.268;2022-10-22T01:39:55;16.20;;;13.13;;
11877;SDS011;5998;42.676;23.268;2022-10-22T01:42:22;20.00;;;13.97;;
11877;SDS011;5998;42.676;23.268;2022-10-22T01:44:49;17.00;;;13.73;;
11877;SDS011;5998;42.676;23.268;2022-10-22T01:47:23;19.10;;;14.33;;
11877;SDS011;5998;42.676;23.268;2022-10-22T01:49:59;19.27;;;13.03;;
11877;SDS011;5998;42.676;23.268;2022-10-22T01:52:31;16.53;;;13.57;;
11877;SDS011;5998;42.676;23.268;2022-10-22T01:55:02;18.73;;;13.70;;
11877;SDS011;5998;42.676;23.268;2022-10-22T01:57:39;17.70;;;13.93;;
11877;SDS011;5998;42.676;23.268;2022-10-22T02:00:07;17.17;;;13.17;;
11877;SDS011;5998;42.676;23.268;2022-10-22T02:02:38;21.37;;;13.63;;
11877;SDS011;5998;42.676;23.268;2022-10-22T02:05:06;17.70;;;13.57;;
11877;SDS011;5998;42.676;23.268;2022-10-22T02:07:37;18.07;;;13.03;;
11877;SDS011;5998;42.676;23.268;2022-10-22T02:10:05;16.70;;;13.33;;
11877;SDS011;5998;42.676;23.268;2022-10-22T02:12:33;14.93;;;12.43;;
11877;SDS011;5998;42.676;23.268;2022-10-22T02:15:00;17.23;;;13.43;;
11877;SDS011;5998;42.676;23.268;2022-10-22T02:17:28;20.60;;;13.70;;
11877;SDS011;5998;42.676;23.268;2022-10-22T02:19:58;15.33;;;12.77;;
11877;SDS011;5998;42.676;23.268;2022-10-22T02:22:25;18.50;;;13.97;;
11877;SDS011;5998;42.676;23.268;2022-10-22T02:24:52;18.80;;;13.53;;
11877;SDS011;5998;42.676;23.268;2022-10-22T02:27:19;15.37;;;13.77;;
11877;SDS011;5998;42.676;23.268;2022-10-22T02:29:48;22.20;;;14.60;;
11877;SDS011;5998;42.676;23.268;2022-10-22T02:32:19;18.83;;;14.27;;
11877;SDS011;5998;42.676;23.268;2022-10-22T02:34:46;18.70;;;14.50;;
11877;SDS011;5998;42.676;23.268;2022-10-22T02:37:15;16.93;;;13.00;;
11877;SDS011;5998;42.676;23.268;2022-10-22T02:39:42;21.33;;;14.13;;
11877;SDS011;5998;42.676;23.268;2022-10-22T02:42:09;21.37;;;13.93;;
11877;SDS011;5998;42.676;23.268;2022-10-22T02:44:36;17.50;;;13.90;;
11877;SDS011;5998;42.676;23.268;2022-10-22T02:47:03;18.10;;;14.07;;
11877;SDS011;5998;42.676;23.268;2022-10-22T02:49:30;19.73;;;14.03;;
11877;SDS011;5998;42.676;23.268;2022-10-22T02:51:56;21.27;;;14.60;;
11877;SDS011;5998;42.676;23.268;2022-10-22T02:54:25;15.73;;;13.67;;
11877;SDS011;5998;42.676;23.268;2022-10-22T02:56:51;19.47;;;14.30;;
11877;SDS011;5998;42.676;23.268;2022-10-22T02:59:18;22.87;;;15.43;;
11877;SDS011;5998;42.676;23.268;2022-10-22T03:01:44;17.40;;;13.70;;
11877;SDS011;5998;42.676;23.268;2022-10-22T03:04:10;19.90;;;13.87;;
11877;SDS011;5998;42.676;23.268;2022-10-22T03:06:37;21.60;;;14.43;;
11877;SDS011;5998;42.676;23.268;2022-10-22T03:09:03;18.50;;;14.50;;
11877;SDS011;5998;42.676;23.268;2022-10-22T03:11:31;19.70;;;14.10;;
11877;SDS011;5998;42.676;23.268;2022-10-22T03:13:58;21.33;;;14.20;;
11877;SDS011;5998;42.676;23.268;2022-10-22T03:16:24;19.90;;;14.20;;
11877;SDS011;5998;42.676;23.268;2022-10-22T03:18:51;17.70;;;13.53;;
11877;SDS011;5998;42.676;23.268;2022-10-22T03:21:19;17.63;;;13.77;;
11877;SDS011;5998;42.676;23.268;2022-10-22T03:23:46;18.87;;;13.37;;
11877;SDS011;5998;42.676;23.268;2022-10-22T03:26:13;17.17;;;13.53;;
11877;SDS011;5998;42.676;23.268;2022-10-22T03:28:41;17.37;;;13.70;;
11877;SDS011;5998;42.676;23.268;2022-10-22T03:31:07;18.50;;;14.17;;
11877;SDS011;5998;42.676;23.268;2022-10-22T03:33:34;18.80;;;14.17;;
11877;SDS011;5998;42.676;23.268;2022-10-22T03:36:00;18.53;;;13.97;;
11877;SDS011;5998;42.676;23.268;2022-10-22T03:38:27;18.67;;;14.37;;
11877;SDS011;5998;42.676;23.268;2022-10-22T03:40:54;18.40;;;14.37;;
11877;SDS011;5998;42.676;23.268;2022-10-22T03:43:20;17.53;;;13.83;;
11877;SDS011;5998;42.676;23.268;2022-10-22T03:45:48;17.40;;;13.37;;
11877;SDS011;5998;42.676;23.268;2022-10-22T03:48:14;18.50;;;14.37;;
11877;SDS011;5998;42.676;23.268;2022-10-22T03:50:41;19.20;;;13.83;;
11877;SDS011;5998;42.676;23.268;2022-10-22T03:53:07;24.10;;;16.20;;
11877;SDS011;5998;42.676;23.268;2022-10-22T03:55:34;21.90;;;13.60;;
11877;SDS011;5998;42.676;23.268;2022-10-22T03:58:02;18.20;;;14.50;;
11877;SDS011;5998;42.676;23.268;2022-10-22T04:00:28;19.83;;;13.80;;
11877;SDS011;5998;42.676;23.268;2022-10-22T04:02:56;17.27;;;13.50;;
11877;SDS011;5998;42.676;23.268;2022-10-22T04:05:23;19.27;;;14.03;;
11877;SDS011;5998;42.676;23.268;2022-10-22T04:07:49;20.00;;;14.30;;
11877;SDS011;5998;42.676;23.268;2022-10-22T04:10:16;17.93;;;14.00;;
11877;SDS011;5998;42.676;23.268;2022-10-22T04:12:43;23.13;;;15.37;;
11877;SDS011;5998;42.676;23.268;2022-10-22T04:15:11;21.90;;;15.20;;
11877;SDS011;5998;42.676;23.268;2022-10-22T04:17:38;24.17;;;15.10;;
11877;SDS011;5998;42.676;23.268;2022-10-22T04:20:06;24.40;;;15.13;;
11877;SDS011;5998;42.676;23.268;2022-10-22T04:22:33;21.30;;;15.40;;
11877;SDS011;5998;42.676;23.268;2022-10-22T04:25:00;19.50;;;15.80;;
11877;SDS011;5998;42.676;23.268;2022-10-22T04:27:28;20.90;;;15.20;;
11877;SDS011;5998;42.676;23.268;2022-10-22T04:29:55;18.37;;;15.13;;
11877;SDS011;5998;42.676;23.268;2022-10-22T04:32:21;20.43;;;15.13;;
11877;SDS011;5998;42.676;23.268;2022-10-22T04:34:48;18.60;;;14.70;;
11877;SDS011;5998;42.676;23.268;2022-10-22T04:37:16;21.87;;;16.27;;
11877;SDS011;5998;42.676;23.268;2022-10-22T04:39:42;24.87;;;16.43;;
11877;SDS011;5998;42.676;23.268;2022-10-22T04:42:09;25.50;;;17.03;;
11877;SDS011;5998;42.676;23.268;2022-10-22T04:44:36;26.43;;;16.23;;
11877;SDS011;5998;42.676;23.268;2022-10-22T04:47:03;29.00;;;17.37;;
11877;SDS011;5998;42.676;23.268;2022-10-22T04:49:30;34.83;;;17.90;;
11877;SDS011;5998;42.676;23.268;2022-10-22T04:51:56;26.60;;;16.47;;
11877;SDS011;5998;42.676;23.268;2022-10-22T04:54:24;25.57;;;17.43;;
11877;SDS011;5998;42.676;23.268;2022-10-22T04:56:50;26.57;;;18.27;;
11877;SDS011;5998;42.676;23.268;2022-10-22T04:59:17;30.60;;;20.10;;
11877;SDS011;5998;42.676;23.268;2022-10-22T05:01:43;25.10;;;17.80;;
11877;SDS011;5998;42.676;23.268;2022-10-22T05:04:11;31.10;;;19.30;;
11877;SDS011;5998;42.676;23.268;2022-10-22T05:06:38;28.17;;;18.17;;
11877;SDS011;5998;42.676;23.268;2022-10-22T05:09:05;30.13;;;18.03;;
11877;SDS011;5998;42.676;23.268;2022-10-22T05:11:34;25.43;;;17.83;;
11877;SDS011;5998;42.676;23.268;2022-10-22T05:14:02;29.17;;;19.70;;
11877;SDS011;5998;42.676;23.268;2022-10-22T05:16:29;29.73;;;18.80;;
11877;SDS011;5998;42.676;23.268;2022-10-22T05:18:56;30.23;;;21.27;;
11877;SDS011;5998;42.676;23.268;2022-10-22T05:21:23;31.30;;;19.70;;
11877;SDS011;5998;42.676;23.268;2022-10-22T05:23:49;26.80;;;19.93;;
11877;SDS011;5998;42.676;23.268;2022-10-22T05:26:17;29.93;;;18.97;;
11877;SDS011;5998;42.676;23.268;2022-10-22T05:28:45;24.40;;;19.37;;
11877;SDS011;5998;42.676;23.268;2022-10-22T05:31:12;27.63;;;19.13;;
11877;SDS011;5998;42.676;23.268;2022-10-22T05:33:39;26.63;;;19.87;;
11877;SDS011;5998;42.676;23.268;2022-10-22T05:36:06;28.67;;;19.03;;
11877;SDS011;5998;42.676;23.268;2022-10-22T05:38:33;33.80;;;21.30;;
11877;SDS011;5998;42.676;23.268;2022-10-22T05:40:59;32.53;;;21.73;;
11877;SDS011;5998;42.676;23.268;2022-10-22T05:43:26;27.60;;;21.60;;
11877;SDS011;5998;42.676;23.268;2022-10-22T05:45:54;31.50;;;20.40;;
11877;SDS011;5998;42.676;23.268;2022-10-22T05:48:21;32.13;;;20.70;;
11877;SDS011;5998;42.676;23.268;2022-10-22T05:50:47;32.23;;;19.73;;
11877;SDS011;5998;42.676;23.268;2022-10-22T05:53:15;31.13;;;21.70;;
11877;SDS011;5998;42.676;23.268;2022-10-22T05:55:41;28.67;;;21.00;;
11877;SDS011;5998;42.676;23.268;2022-10-22T05:58:08;29.83;;;21.33;;
11877;SDS011;5998;42.676;23.268;2022-10-22T06:00:35;27.97;;;20.13;;
11877;SDS011;5998;42.676;23.268;2022-10-22T06:03:03;34.10;;;21.53;;
11877;SDS011;5998;42.676;23.268;2022-10-22T06:05:29;41.10;;;25.27;;
11877;SDS011;5998;42.676;23.268;2022-10-22T06:07:56;35.87;;;26.93;;
11877;SDS011;5998;42.676;23.268;2022-10-22T06:10:22;35.20;;;25.00;;
11877;SDS011;5998;42.676;23.268;2022-10-22T06:12:49;35.17;;;24.77;;
11877;SDS011;5998;42.676;23.268;2022-10-22T06:15:16;35.37;;;24.10;;
11877;SDS011;5998;42.676;23.268;2022-10-22T06:17:43;34.07;;;24.43;;
11877;SDS011;5998;42.676;23.268;2022-10-22T06:20:11;33.10;;;23.43;;
11877;SDS011;5998;42.676;23.268;2022-10-22T06:22:38;39.17;;;28.60;;
11877;SDS011;5998;42.676;23.268;2022-10-22T06:25:05;39.80;;;26.13;;
11877;SDS011;5998;42.676;23.268;2022-10-22T06:27:32;31.37;;;24.83;;
11877;SDS011;5998;42.676;23.268;2022-10-22T06:29:58;35.63;;;24.50;;
11877;SDS011;5998;42.676;23.268;2022-10-22T06:32:25;34.47;;;23.00;;
11877;SDS011;5998;42.676;23.268;2022-10-22T06:34:51;36.33;;;27.23;;
11877;SDS011;5998;42.676;23.268;2022-10-22T06:37:19;37.03;;;23.50;;
11877;SDS011;5998;42.676;23.268;2022-10-22T06:39:46;30.00;;;22.37;;
11877;SDS011;5998;42.676;23.268;2022-10-22T06:42:12;34.27;;;25.53;;
11877;SDS011;5998;42.676;23.268;2022-10-22T06:44:39;35.07;;;24.20;;
11877;SDS011;5998;42.676;23.268;2022-10-22T06:47:05;34.93;;;23.83;;
11877;SDS011;5998;42.676;23.268;2022-10-22T06:49:31;35.13;;;25.00;;
11877;SDS011;5998;42.676;23.268;2022-10-22T06:51:58;33.57;;;21.90;;
11877;SDS011;5998;42.676;23.268;2022-10-22T06:54:26;27.43;;;21.40;;
11877;SDS011;5998;42.676;23.268;2022-10-22T06:56:52;30.87;;;20.97;;
11877;SDS011;5998;42.676;23.268;2022-10-22T06:59:18;28.07;;;21.07;;
11877;SDS011;5998;42.676;23.268;2022-10-22T07:01:45;29.50;;;21.23;;
11877;SDS011;5998;42.676;23.268;2022-10-22T07:04:11;31.00;;;22.27;;
11877;SDS011;5998;42.676;23.268;2022-10-22T07:06:38;24.47;;;20.37;;
11877;SDS011;5998;42.676;23.268;2022-10-22T07:09:04;30.67;;;21.37;;
11877;SDS011;5998;42.676;23.268;2022-10-22T07:11:36;28.40;;;22.60;;
11877;SDS011;5998;42.676;23.268;2022-10-22T07:14:04;27.90;;;21.23;;
11877;SDS011;5998;42.676;23.268;2022-10-22T07:16:30;29.00;;;20.63;;
11877;SDS011;5998;42.676;23.268;2022-10-22T07:18:56;27.10;;;21.67;;
11877;SDS011;5998;42.676;23.268;2022-10-22T07:21:23;30.20;;;21.77;;
11877;SDS011;5998;42.676;23.268;2022-10-22T07:23:50;29.47;;;22.03;;
11877;SDS011;5998;42.676;23.268;2022-10-22T07:26:16;25.07;;;21.70;;
11877;SDS011;5998;42.676;23.268;2022-10-22T07:28:45;29.73;;;23.77;;
11877;SDS011;5998;42.676;23.268;2022-10-22T07:31:13;41.17;;;28.07;;
11877;SDS011;5998;42.676;23.268;2022-10-22T07:33:40;38.70;;;26.50;;
11877;SDS011;5998;42.676;23.268;2022-10-22T07:36:07;33.30;;;24.43;;
11877;SDS011;5998;42.676;23.268;2022-10-22T07:38:34;34.27;;;24.13;;
11877;SDS011;5998;42.676;23.268;2022-10-22T07:41:00;23.37;;;20.03;;
11877;SDS011;5998;42.676;23.268;2022-10-22T07:43:27;27.27;;;20.43;;
11877;SDS011;5998;42.676;23.268;2022-10-22T07:45:55;22.43;;;17.27;;
11877;SDS011;5998;42.676;23.268;2022-10-22T07:48:23;25.57;;;19.87;;
11877;SDS011;5998;42.676;23.268;2022-10-22T07:50:50;26.03;;;18.77;;
11877;SDS011;5998;42.676;23.268;2022-10-22T07:53:17;25.20;;;20.90;;
11877;SDS011;5998;42.676;23.268;2022-10-22T07:55:44;25.67;;;19.63;;
11877;SDS011;5998;42.676;23.268;2022-10-22T07:58:12;21.77;;;19.10;;
11877;SDS011;5998;42.676;23.268;2022-10-22T08:00:39;29.33;;;21.30;;
11877;SDS011;5998;42.676;23.268;2022-10-22T08:03:07;27.10;;;21.77;;
11877;SDS011;5998;42.676;23.268;2022-10-22T08:05:34;26.37;;;20.63;;
11877;SDS011;5998;42.676;23.268;2022-10-22T08:08:01;29.37;;;21.67;;
11877;SDS011;5998;42.676;23.268;2022-10-22T08:10:27;30.17;;;21.53;;
11877;SDS011;5998;42.676;23.268;2022-10-22T08:12:54;26.67;;;20.63;;
11877;SDS011;5998;42.676;23.268;2022-10-22T08:15:20;27.20;;;20.17;;
11877;SDS011;5998;42.676;23.268;2022-10-22T08:17:49;24.80;;;19.63;;
11877;SDS011;5998;42.676;23.268;2022-10-22T08:20:17;20.97;;;15.93;;
11877;SDS011;5998;42.676;23.268;2022-10-22T08:22:44;21.17;;;17.93;;
11877;SDS011;5998;42.676;23.268;2022-10-22T08:25:10;23.07;;;18.83;;
11877;SDS011;5998;42.676;23.268;2022-10-22T08:27:37;27.27;;;20.27;;
11877;SDS011;5998;42.676;23.268;2022-10-22T08:30:04;21.90;;;17.93;;
11877;SDS011;5998;42.676;23.268;2022-10-22T08:32:31;22.37;;;18.00;;
11877;SDS011;5998;42.676;23.268;2022-10-22T08:34:57;23.03;;;17.23;;
11877;SDS011;5998;42.676;23.268;2022-10-22T08:37:25;19.20;;;15.83;;
11877;SDS011;5998;42.676;23.268;2022-10-22T08:39:52;19.23;;;14.87;;
11877;SDS011;5998;42.676;23.268;2022-10-22T08:42:29;18.87;;;14.30;;
11877;SDS011;5998;42.676;23.268;2022-10-22T08:45:02;20.60;;;15.93;;
11877;SDS011;5998;42.676;23.268;2022-10-22T08:47:36;19.63;;;16.60;;
11877;SDS011;5998;42.676;23.268;2022-10-22T08:50:08;23.13;;;16.40;;
11877;SDS011;5998;42.676;23.268;2022-10-22T08:52:36;19.53;;;15.97;;
11877;SDS011;5998;42.676;23.268;2022-10-22T08:55:08;19.13;;;16.20;;
11877;SDS011;5998;42.676;23.268;2022-10-22T08:57:39;19.97;;;16.83;;
11877;SDS011;5998;42.676;23.268;2022-10-22T09:00:10;22.67;;;17.27;;
11877;SDS011;5998;42.676;23.268;2022-10-22T09:02:39;27.20;;;19.03;;
11877;SDS011;5998;42.676;23.268;2022-10-22T09:05:17;25.90;;;20.37;;
11877;SDS011;5998;42.676;23.268;2022-10-22T09:07:47;28.87;;;18.70;;
11877;SDS011;5998;42.676;23.268;2022-10-22T09:10:15;24.17;;;18.77;;
11877;SDS011;5998;42.676;23.268;2022-10-22T09:12:41;24.53;;;19.20;;
11877;SDS011;5998;42.676;23.268;2022-10-22T09:15:11;23.13;;;18.90;;
11877;SDS011;5998;42.676;23.268;2022-10-22T09:17:40;22.23;;;18.47;;
11877;SDS011;5998;42.676;23.268;2022-10-22T09:20:10;25.73;;;20.60;;
11877;SDS011;5998;42.676;23.268;2022-10-22T09:22:42;26.67;;;20.20;;
11877;SDS011;5998;42.676;23.268;2022-10-22T09:25:15;28.17;;;21.10;;
11877;SDS011;5998;42.676;23.268;2022-10-22T09:27:43;28.57;;;21.37;;
11877;SDS011;5998;42.676;23.268;2022-10-22T09:30:10;23.77;;;20.50;;
11877;SDS011;5998;42.676;23.268;2022-10-22T09:32:40;24.93;;;20.07;;
11877;SDS011;5998;42.676;23.268;2022-10-22T09:35:08;26.40;;;21.40;;
11877;SDS011;5998;42.676;23.268;2022-10-22T09:37:35;30.43;;;21.63;;
11877;SDS011;5998;42.676;23.268;2022-10-22T09:40:04;26.20;;;21.23;;
11877;SDS011;5998;42.676;23.268;2022-10-22T09:42:32;29.63;;;21.40;;
11877;SDS011;5998;42.676;23.268;2022-10-22T09:44:59;26.00;;;20.63;;
11877;SDS011;5998;42.676;23.268;2022-10-22T09:47:27;23.30;;;19.00;;
11877;SDS011;5998;42.676;23.268;2022-10-22T09:50:03;24.40;;;18.37;;
11877;SDS011;5998;42.676;23.268;2022-10-22T09:52:29;25.57;;;19.53;;
11877;SDS011;5998;42.676;23.268;2022-10-22T09:54:56;22.97;;;17.87;;
11877;SDS011;5998;42.676;23.268;2022-10-22T09:57:27;24.13;;;18.73;;
11877;SDS011;5998;42.676;23.268;2022-10-22T09:59:55;26.77;;;19.93;;
11877;SDS011;5998;42.676;23.268;2022-10-22T10:02:22;23.37;;;19.00;;
11877;SDS011;5998;42.676;23.268;2022-10-22T10:04:50;23.07;;;18.33;;
11877;SDS011;5998;42.676;23.268;2022-10-22T10:07:17;22.93;;;19.83;;
11877;SDS011;5998;42.676;23.268;2022-10-22T10:09:44;25.33;;;18.87;;
11877;SDS011;5998;42.676;23.268;2022-10-22T10:12:15;23.90;;;19.27;;
11877;SDS011;5998;42.676;23.268;2022-10-22T10:14:46;26.67;;;19.93;;
11877;SDS011;5998;42.676;23.268;2022-10-22T10:17:17;24.23;;;19.50;;
11877;SDS011;5998;42.676;23.268;2022-10-22T10:19:48;22.67;;;19.00;;
11877;SDS011;5998;42.676;23.268;2022-10-22T10:22:23;26.50;;;20.73;;
11877;SDS011;5998;42.676;23.268;2022-10-22T10:24:59;25.87;;;20.27;;
11877;SDS011;5998;42.676;23.268;2022-10-22T10:27:30;26.43;;;20.60;;
11877;SDS011;5998;42.676;23.268;2022-10-22T10:30:00;23.67;;;18.67;;
11877;SDS011;5998;42.676;23.268;2022-10-22T10:35:15;26.93;;;19.53;;
11877;SDS011;5998;42.676;23.268;2022-10-22T10:37:45;31.07;;;19.80;;
11877;SDS011;5998;42.676;23.268;2022-10-22T10:40:15;22.97;;;19.33;;
11877;SDS011;5998;42.676;23.268;2022-10-22T10:42:45;25.00;;;20.47;;
11877;SDS011;5998;42.676;23.268;2022-10-22T10:45:15;27.23;;;19.73;;
11877;SDS011;5998;42.676;23.268;2022-10-22T10:47:52;25.67;;;18.77;;
11877;SDS011;5998;42.676;23.268;2022-10-22T10:50:24;24.60;;;18.03;;
11877;SDS011;5998;42.676;23.268;2022-10-22T10:52:53;24.80;;;17.87;;
11877;SDS011;5998;42.676;23.268;2022-10-22T10:55:24;26.13;;;17.57;;
11877;SDS011;5998;42.676;23.268;2022-10-22T10:57:55;24.30;;;17.60;;
11877;SDS011;5998;42.676;23.268;2022-10-22T11:00:25;20.53;;;16.60;;
11877;SDS011;5998;42.676;23.268;2022-10-22T11:03:02;23.73;;;18.23;;
11877;SDS011;5998;42.676;23.268;2022-10-22T11:05:37;24.50;;;18.80;;
11877;SDS011;5998;42.676;23.268;2022-10-22T11:08:08;21.93;;;18.10;;
11877;SDS011;5998;42.676;23.268;2022-10-22T11:10:37;25.03;;;17.10;;
11877;SDS011;5998;42.676;23.268;2022-10-22T11:13:06;22.73;;;18.13;;
11877;SDS011;5998;42.676;23.268;2022-10-22T11:15:34;22.23;;;17.33;;
11877;SDS011;5998;42.676;23.268;2022-10-22T11:18:05;23.47;;;16.47;;
11877;SDS011;5998;42.676;23.268;2022-10-22T11:20:41;21.47;;;16.80;;
11877;SDS011;5998;42.676;23.268;2022-10-22T11:23:10;20.73;;;16.67;;
11877;SDS011;5998;42.676;23.268;2022-10-22T11:25:39;19.37;;;16.73;;
11877;SDS011;5998;42.676;23.268;2022-10-22T11:28:08;21.53;;;15.93;;
11877;SDS011;5998;42.676;23.268;2022-10-22T11:30:36;21.13;;;15.90;;
11877;SDS011;5998;42.676;23.268;2022-10-22T11:33:04;23.53;;;16.60;;
11877;SDS011;5998;42.676;23.268;2022-10-22T11:35:33;20.67;;;14.97;;
11877;SDS011;5998;42.676;23.268;2022-10-22T11:38:01;20.77;;;15.23;;
11877;SDS011;5998;42.676;23.268;2022-10-22T11:40:31;26.80;;;16.77;;
11877;SDS011;5998;42.676;23.268;2022-10-22T11:42:59;21.63;;;14.73;;
11877;SDS011;5998;42.676;23.268;2022-10-22T11:45:29;21.77;;;14.57;;
11877;SDS011;5998;42.676;23.268;2022-10-22T11:47:57;20.60;;;14.13;;
11877;SDS011;5998;42.676;23.268;2022-10-22T11:50:25;23.97;;;14.47;;
11877;SDS011;5998;42.676;23.268;2022-10-22T11:52:59;19.07;;;13.90;;
11877;SDS011;5998;42.676;23.268;2022-10-22T11:55:40;17.77;;;14.07;;
11877;SDS011;5998;42.676;23.268;2022-10-22T11:58:24;19.93;;;13.97;;
11877;SDS011;5998;42.676;23.268;2022-10-22T12:00:51;21.63;;;14.13;;
11877;SDS011;5998;42.676;23.268;2022-10-22T12:03:18;19.30;;;13.33;;
11877;SDS011;5998;42.676;23.268;2022-10-22T12:06:01;19.83;;;13.00;;
11877;SDS011;5998;42.676;23.268;2022-10-22T12:08:27;16.80;;;13.20;;
11877;SDS011;5998;42.676;23.268;2022-10-22T12:10:57;22.90;;;13.47;;
11877;SDS011;5998;42.676;23.268;2022-10-22T12:13:26;21.50;;;13.17;;
11877;SDS011;5998;42.676;23.268;2022-10-22T12:15:53;14.60;;;12.50;;
11877;SDS011;5998;42.676;23.268;2022-10-22T12:18:22;16.70;;;12.33;;
11877;SDS011;5998;42.676;23.268;2022-10-22T12:20:49;17.57;;;12.20;;
11877;SDS011;5998;42.676;23.268;2022-10-22T12:23:16;15.87;;;14.10;;
11877;SDS011;5998;42.676;23.268;2022-10-22T12:25:42;17.03;;;12.77;;
11877;SDS011;5998;42.676;23.268;2022-10-22T12:28:11;14.83;;;11.63;;
11877;SDS011;5998;42.676;23.268;2022-10-22T12:30:37;17.93;;;12.13;;
11877;SDS011;5998;42.676;23.268;2022-10-22T12:33:06;16.20;;;12.63;;
11877;SDS011;5998;42.676;23.268;2022-10-22T12:35:33;17.50;;;12.57;;
11877;SDS011;5998;42.676;23.268;2022-10-22T12:38:01;15.43;;;11.53;;
11877;SDS011;5998;42.676;23.268;2022-10-22T12:40:28;13.77;;;11.30;;
11877;SDS011;5998;42.676;23.268;2022-10-22T12:42:56;17.20;;;12.27;;
11877;SDS011;5998;42.676;23.268;2022-10-22T12:45:26;14.57;;;12.40;;
11877;SDS011;5998;42.676;23.268;2022-10-22T12:47:54;16.27;;;11.43;;
11877;SDS011;5998;42.676;23.268;2022-10-22T12:50:22;15.83;;;11.60;;
11877;SDS011;5998;42.676;23.268;2022-10-22T12:52:48;16.37;;;11.80;;
11877;SDS011;5998;42.676;23.268;2022-10-22T12:55:15;15.83;;;11.90;;
11877;SDS011;5998;42.676;23.268;2022-10-22T12:57:42;15.47;;;12.00;;
11877;SDS011;5998;42.676;23.268;2022-10-22T13:00:21;16.43;;;11.37;;
11877;SDS011;5998;42.676;23.268;2022-10-22T13:02:49;13.53;;;10.23;;
11877;SDS011;5998;42.676;23.268;2022-10-22T13:05:19;14.30;;;10.20;;
11877;SDS011;5998;42.676;23.268;2022-10-22T13:07:47;14.73;;;9.80;;
11877;SDS011;5998;42.676;23.268;2022-10-22T13:10:17;11.73;;;9.50;;
11877;SDS011;5998;42.676;23.268;2022-10-22T13:12:44;16.80;;;10.87;;
11877;SDS011;5998;42.676;23.268;2022-10-22T13:15:18;13.20;;;10.73;;
11877;SDS011;5998;42.676;23.268;2022-10-22T13:17:45;14.47;;;10.40;;
11877;SDS011;5998;42.676;23.268;2022-10-22T13:20:18;10.83;;;9.83;;
11877;SDS011;5998;42.676;23.268;2022-10-22T13:22:55;16.07;;;10.37;;
11877;SDS011;5998;42.676;23.268;2022-10-22T13:25:25;13.47;;;9.50;;
11877;SDS011;5998;42.676;23.268;2022-10-22T13:27:52;13.40;;;9.70;;
11877;SDS011;5998;42.676;23.268;2022-10-22T13:30:20;10.67;;;9.30;;
11877;SDS011;5998;42.676;23.268;2022-10-22T13:32:48;12.00;;;9.50;;
11877;SDS011;5998;42.676;23.268;2022-10-22T13:35:14;13.10;;;9.67;;
11877;SDS011;5998;42.676;23.268;2022-10-22T13:37:44;15.93;;;9.50;;
11877;SDS011;5998;42.676;23.268;2022-10-22T13:40:11;15.97;;;8.80;;
11877;SDS011;5998;42.676;23.268;2022-10-22T13:42:38;15.63;;;9.37;;
11877;SDS011;5998;42.676;23.268;2022-10-22T13:45:05;14.83;;;9.27;;
11877;SDS011;5998;42.676;23.268;2022-10-22T13:47:31;12.87;;;9.27;;
11877;SDS011;5998;42.676;23.268;2022-10-22T13:49:58;15.70;;;9.27;;
11877;SDS011;5998;42.676;23.268;2022-10-22T13:52:30;11.60;;;8.90;;
11877;SDS011;5998;42.676;23.268;2022-10-22T13:55:00;13.63;;;9.20;;
11877;SDS011;5998;42.676;23.268;2022-10-22T13:57:26;20.53;;;11.03;;
11877;SDS011;5998;42.676;23.268;2022-10-22T13:59:53;14.43;;;10.00;;
11877;SDS011;5998;42.676;23.268;2022-10-22T14:02:19;11.87;;;9.73;;
11877;SDS011;5998;42.676;23.268;2022-10-22T14:04:48;17.80;;;11.63;;
11877;SDS011;5998;42.676;23.268;2022-10-22T14:07:15;13.30;;;10.70;;
11877;SDS011;5998;42.676;23.268;2022-10-22T14:09:42;15.77;;;10.97;;
11877;SDS011;5998;42.676;23.268;2022-10-22T14:12:11;14.20;;;9.47;;
11877;SDS011;5998;42.676;23.268;2022-10-22T14:14:38;10.97;;;9.77;;
11877;SDS011;5998;42.676;23.268;2022-10-22T14:17:05;15.17;;;11.27;;
11877;SDS011;5998;42.676;23.268;2022-10-22T14:19:34;16.60;;;10.37;;
11877;SDS011;5998;42.676;23.268;2022-10-22T14:22:00;13.57;;;9.43;;
11877;SDS011;5998;42.676;23.268;2022-10-22T14:24:27;11.97;;;9.17;;
11877;SDS011;5998;42.676;23.268;2022-10-22T14:26:53;17.20;;;10.03;;
11877;SDS011;5998;42.676;23.268;2022-10-22T14:29:21;19.07;;;9.80;;
11877;SDS011;5998;42.676;23.268;2022-10-22T14:31:48;20.13;;;10.53;;